GABS

Bamako-Sénou International Airport

Airport
ICAO code
GABS
IATA Code
BKO
Summary
ICAO Region
AFI
ICAO Territory
Location

Bamako, Bamako

Serving
Bamako
Elevation
1247 ft
Coordinates
12° 32' 27" N , 7° 56' 53" W
KCC
Metar
GABS 280500Z 35004KT CAVOK 25/08 Q1010 NOSIG

Bamako's Modibo Keita International Airport (formerly Bamako–Sénou International Airport) is Mali's main airport located approximately 15 km south of downtown Bamako, the capital of Mali in West Africa.

Climatology

Tropical savannah climate (Köppen climate classification Aw)

Runways

Designator Length Width Surface Rops
6/24 2706 45 ASP Yes/Yes

Airport map

Aerial View

SKYbrary Partners:

Safety knowledge contributed by: